sensor_id;sensor_type;location;lat;lon;timestamp;temperature;humidity
418;DHT22;49;48.530;9.200;2023-02-26T00:01:32;3.00;45.60
418;DHT22;49;48.530;9.200;2023-02-26T00:04:00;3.10;47.90
418;DHT22;49;48.530;9.200;2023-02-26T00:06:31;3.30;44.30
418;DHT22;49;48.530;9.200;2023-02-26T00:08:59;3.30;42.80
418;DHT22;49;48.530;9.200;2023-02-26T00:11:28;3.10;45.20
418;DHT22;49;48.530;9.200;2023-02-26T00:13:55;3.20;45.30
418;DHT22;49;48.530;9.200;2023-02-26T00:16:26;3.10;46.10
418;DHT22;49;48.530;9.200;2023-02-26T00:18:54;3.10;46.40
418;DHT22;49;48.530;9.200;2023-02-26T00:21:22;3.20;46.80
418;DHT22;49;48.530;9.200;2023-02-26T00:23:50;3.70;45.00
418;DHT22;49;48.530;9.200;2023-02-26T00:26:18;3.90;43.10
418;DHT22;49;48.530;9.200;2023-02-26T00:28:47;3.80;42.60
418;DHT22;49;48.530;9.200;2023-02-26T00:31:15;3.60;44.50
418;DHT22;49;48.530;9.200;2023-02-26T00:33:43;3.20;45.80
418;DHT22;49;48.530;9.200;2023-02-26T00:36:18;2.70;49.10
418;DHT22;49;48.530;9.200;2023-02-26T00:39:01;2.80;52.60
418;DHT22;49;48.530;9.200;2023-02-26T00:41:31;2.60;52.70
418;DHT22;49;48.530;9.200;2023-02-26T00:44:00;2.90;53.00
418;DHT22;49;48.530;9.200;2023-02-26T00:46:35;3.20;50.60
418;DHT22;49;48.530;9.200;2023-02-26T00:49:14;2.90;50.90
418;DHT22;49;48.530;9.200;2023-02-26T00:51:47;2.70;53.90
418;DHT22;49;48.530;9.200;2023-02-26T00:54:18;2.80;54.50
418;DHT22;49;48.530;9.200;2023-02-26T00:57:07;2.70;54.70
418;DHT22;49;48.530;9.200;2023-02-26T00:59:43;3.10;52.50
418;DHT22;49;48.530;9.200;2023-02-26T01:02:10;3.40;51.20
418;DHT22;49;48.530;9.200;2023-02-26T01:04:38;3.80;48.60
418;DHT22;49;48.530;9.200;2023-02-26T01:07:10;4.20;45.70
418;DHT22;49;48.530;9.200;2023-02-26T01:09:38;4.00;45.30
418;DHT22;49;48.530;9.200;2023-02-26T01:12:08;4.30;45.70
418;DHT22;49;48.530;9.200;2023-02-26T01:14:36;4.20;46.00
418;DHT22;49;48.530;9.200;2023-02-26T01:17:11;4.30;43.80
418;DHT22;49;48.530;9.200;2023-02-26T01:19:44;4.50;43.50
418;DHT22;49;48.530;9.200;2023-02-26T01:22:18;4.40;42.50
418;DHT22;49;48.530;9.200;2023-02-26T01:24:48;4.50;42.80
418;DHT22;49;48.530;9.200;2023-02-26T01:27:18;4.50;44.50
418;DHT22;49;48.530;9.200;2023-02-26T01:29:45;4.40;41.70
418;DHT22;49;48.530;9.200;2023-02-26T01:32:17;4.40;41.20
418;DHT22;49;48.530;9.200;2023-02-26T01:34:49;4.20;40.90
418;DHT22;49;48.530;9.200;2023-02-26T01:37:24;3.90;41.10
418;DHT22;49;48.530;9.200;2023-02-26T01:40:13;3.60;42.20
418;DHT22;49;48.530;9.200;2023-02-26T01:42:47;3.30;42.60
418;DHT22;49;48.530;9.200;2023-02-26T01:45:18;3.40;44.90
418;DHT22;49;48.530;9.200;2023-02-26T01:47:52;3.50;43.00
418;DHT22;49;48.530;9.200;2023-02-26T01:50:22;3.50;42.30
418;DHT22;49;48.530;9.200;2023-02-26T01:53:15;3.60;43.40
418;DHT22;49;48.530;9.200;2023-02-26T01:55:44;3.70;43.40
418;DHT22;49;48.530;9.200;2023-02-26T01:58:12;4.10;40.80
418;DHT22;49;48.530;9.200;2023-02-26T02:00:39;3.90;42.30
418;DHT22;49;48.530;9.200;2023-02-26T02:03:08;4.00;40.50
418;DHT22;49;48.530;9.200;2023-02-26T02:05:41;3.80;39.30
418;DHT22;49;48.530;9.200;2023-02-26T02:08:10;3.90;39.50
418;DHT22;49;48.530;9.200;2023-02-26T02:10:41;4.00;40.00
418;DHT22;49;48.530;9.200;2023-02-26T02:13:14;3.80;39.50
418;DHT22;49;48.530;9.200;2023-02-26T02:15:47;3.70;40.90
418;DHT22;49;48.530;9.200;2023-02-26T02:18:21;3.70;40.80
418;DHT22;49;48.530;9.200;2023-02-26T02:21:06;3.40;42.30
418;DHT22;49;48.530;9.200;2023-02-26T02:23:42;2.90;44.00
418;DHT22;49;48.530;9.200;2023-02-26T02:26:27;2.80;44.80
418;DHT22;49;48.530;9.200;2023-02-26T02:29:18;3.10;45.40
418;DHT22;49;48.530;9.200;2023-02-26T02:31:54;3.10;44.30
418;DHT22;49;48.530;9.200;2023-02-26T02:34:28;3.20;44.80
418;DHT22;49;48.530;9.200;2023-02-26T02:36:58;3.60;41.80
418;DHT22;49;48.530;9.200;2023-02-26T02:39:28;3.10;42.70
418;DHT22;49;48.530;9.200;2023-02-26T02:41:59;2.80;44.00
418;DHT22;49;48.530;9.200;2023-02-26T02:44:31;3.00;44.60
418;DHT22;49;48.530;9.200;2023-02-26T02:47:03;2.90;43.00
418;DHT22;49;48.530;9.200;2023-02-26T02:49:34;2.60;44.30
418;DHT22;49;48.530;9.200;2023-02-26T02:52:07;2.60;45.00
418;DHT22;49;48.530;9.200;2023-02-26T02:54:39;2.50;47.00
418;DHT22;49;48.530;9.200;2023-02-26T02:57:11;2.60;46.20
418;DHT22;49;48.530;9.200;2023-02-26T02:59:43;2.90;43.90
418;DHT22;49;48.530;9.200;2023-02-26T03:02:15;3.10;42.60
418;DHT22;49;48.530;9.200;2023-02-26T03:04:43;2.80;42.20
418;DHT22;49;48.530;9.200;2023-02-26T03:07:12;2.80;42.90
418;DHT22;49;48.530;9.200;2023-02-26T03:09:39;3.30;41.50
418;DHT22;49;48.530;9.200;2023-02-26T03:12:06;3.10;39.70
418;DHT22;49;48.530;9.200;2023-02-26T03:14:33;3.10;40.30
418;DHT22;49;48.530;9.200;2023-02-26T03:17:14;2.60;41.00
418;DHT22;49;48.530;9.200;2023-02-26T03:19:53;2.40;43.60
418;DHT22;49;48.530;9.200;2023-02-26T03:22:33;2.40;43.00
418;DHT22;49;48.530;9.200;2023-02-26T03:25:08;2.10;44.50
418;DHT22;49;48.530;9.200;2023-02-26T03:27:41;2.20;43.90
418;DHT22;49;48.530;9.200;2023-02-26T03:30:15;2.30;42.90
418;DHT22;49;48.530;9.200;2023-02-26T03:32:51;2.00;43.80
418;DHT22;49;48.530;9.200;2023-02-26T03:35:26;1.80;46.10
418;DHT22;49;48.530;9.200;2023-02-26T03:37:57;1.90;45.00
418;DHT22;49;48.530;9.200;2023-02-26T03:40:34;1.70;45.90
418;DHT22;49;48.530;9.200;2023-02-26T03:43:07;1.40;48.10
418;DHT22;49;48.530;9.200;2023-02-26T03:45:36;1.50;48.40
418;DHT22;49;48.530;9.200;2023-02-26T03:48:09;1.70;47.50
418;DHT22;49;48.530;9.200;2023-02-26T03:50:42;2.00;45.50
418;DHT22;49;48.530;9.200;2023-02-26T03:53:12;2.00;46.20
418;DHT22;49;48.530;9.200;2023-02-26T03:55:47;2.30;43.20
418;DHT22;49;48.530;9.200;2023-02-26T03:58:15;2.10;42.70
418;DHT22;49;48.530;9.200;2023-02-26T04:00:46;2.10;43.80
418;DHT22;49;48.530;9.200;2023-02-26T04:03:23;2.40;44.10
418;DHT22;49;48.530;9.200;2023-02-26T04:05:53;2.30;44.00
418;DHT22;49;48.530;9.200;2023-02-26T04:08:21;2.20;43.60
418;DHT22;49;48.530;9.200;2023-02-26T04:10:57;2.10;43.10
418;DHT22;49;48.530;9.200;2023-02-26T04:13:25;2.20;43.90
418;DHT22;49;48.530;9.200;2023-02-26T04:15:52;2.10;43.90
418;DHT22;49;48.530;9.200;2023-02-26T04:18:21;2.50;42.80
418;DHT22;49;48.530;9.200;2023-02-26T04:20:48;2.30;42.30
418;DHT22;49;48.530;9.200;2023-02-26T04:23:15;2.30;43.50
418;DHT22;49;48.530;9.200;2023-02-26T04:25:44;1.80;44.90
418;DHT22;49;48.530;9.200;2023-02-26T04:28:11;1.60;45.00
418;DHT22;49;48.530;9.200;2023-02-26T04:30:39;1.60;46.40
418;DHT22;49;48.530;9.200;2023-02-26T04:33:06;1.80;45.00
418;DHT22;49;48.530;9.200;2023-02-26T04:35:35;1.80;45.50
418;DHT22;49;48.530;9.200;2023-02-26T04:38:02;1.80;45.90
418;DHT22;49;48.530;9.200;2023-02-26T04:40:29;1.90;46.60
418;DHT22;49;48.530;9.200;2023-02-26T04:42:56;1.90;45.80
418;DHT22;49;48.530;9.200;2023-02-26T04:45:24;2.30;44.50
418;DHT22;49;48.530;9.200;2023-02-26T04:47:51;2.80;55.60
418;DHT22;49;48.530;9.200;2023-02-26T04:50:18;3.30;56.20
418;DHT22;49;48.530;9.200;2023-02-26T04:52:46;3.90;41.00
418;DHT22;49;48.530;9.200;2023-02-26T04:55:13;4.30;36.50
418;DHT22;49;48.530;9.200;2023-02-26T04:57:41;4.80;43.50
418;DHT22;49;48.530;9.200;2023-02-26T05:00:09;5.30;49.90
418;DHT22;49;48.530;9.200;2023-02-26T05:02:36;5.40;35.00
418;DHT22;49;48.530;9.200;2023-02-26T05:05:03;5.30;32.50
418;DHT22;49;48.530;9.200;2023-02-26T05:07:31;5.40;34.80
418;DHT22;49;48.530;9.200;2023-02-26T05:10:00;5.40;35.60
418;DHT22;49;48.530;9.200;2023-02-26T05:12:28;5.10;29.10
418;DHT22;49;48.530;9.200;2023-02-26T05:14:55;4.70;31.90
418;DHT22;49;48.530;9.200;2023-02-26T05:17:24;4.40;31.60
418;DHT22;49;48.530;9.200;2023-02-26T05:19:51;4.30;32.70
418;DHT22;49;48.530;9.200;2023-02-26T05:22:18;4.30;32.30
418;DHT22;49;48.530;9.200;2023-02-26T05:24:45;4.50;38.50
418;DHT22;49;48.530;9.200;2023-02-26T05:27:14;4.40;37.40
418;DHT22;49;48.530;9.200;2023-02-26T05:29:49;4.30;35.20
418;DHT22;49;48.530;9.200;2023-02-26T05:32:16;4.20;34.90
418;DHT22;49;48.530;9.200;2023-02-26T05:34:43;3.50;52.40
418;DHT22;49;48.530;9.200;2023-02-26T05:37:10;2.90;42.90
418;DHT22;49;48.530;9.200;2023-02-26T05:39:37;2.80;42.70
418;DHT22;49;48.530;9.200;2023-02-26T05:42:05;2.90;43.10
418;DHT22;49;48.530;9.200;2023-02-26T05:44:34;2.60;41.80
418;DHT22;49;48.530;9.200;2023-02-26T05:47:04;1.90;45.80
418;DHT22;49;48.530;9.200;2023-02-26T05:49:32;1.20;51.60
418;DHT22;49;48.530;9.200;2023-02-26T05:51:59;0.80;56.00
418;DHT22;49;48.530;9.200;2023-02-26T05:54:27;1.50;53.90
418;DHT22;49;48.530;9.200;2023-02-26T05:56:55;1.50;51.60
418;DHT22;49;48.530;9.200;2023-02-26T05:59:24;1.80;49.70
418;DHT22;49;48.530;9.200;2023-02-26T06:01:53;1.80;49.60
418;DHT22;49;48.530;9.200;2023-02-26T06:04:20;1.30;51.50
418;DHT22;49;48.530;9.200;2023-02-26T06:06:47;1.40;53.30
418;DHT22;49;48.530;9.200;2023-02-26T06:09:14;1.50;56.40
418;DHT22;49;48.530;9.200;2023-02-26T06:11:41;1.50;52.30
418;DHT22;49;48.530;9.200;2023-02-26T06:14:08;1.60;52.70
418;DHT22;49;48.530;9.200;2023-02-26T06:16:39;1.30;51.90
418;DHT22;49;48.530;9.200;2023-02-26T06:19:08;1.30;52.70
418;DHT22;49;48.530;9.200;2023-02-26T06:21:35;1.40;53.70
418;DHT22;49;48.530;9.200;2023-02-26T06:24:02;1.70;51.10
418;DHT22;49;48.530;9.200;2023-02-26T06:26:28;1.50;51.50
418;DHT22;49;48.530;9.200;2023-02-26T06:28:55;2.00;50.50
418;DHT22;49;48.530;9.200;2023-02-26T06:31:23;2.40;48.10
418;DHT22;49;48.530;9.200;2023-02-26T06:33:50;2.30;46.40
418;DHT22;49;48.530;9.200;2023-02-26T06:36:18;2.30;47.10
418;DHT22;49;48.530;9.200;2023-02-26T06:38:45;2.00;47.60
418;DHT22;49;48.530;9.200;2023-02-26T06:41:12;2.30;47.90
418;DHT22;49;48.530;9.200;2023-02-26T06:43:39;2.60;47.30
418;DHT22;49;48.530;9.200;2023-02-26T06:46:06;2.30;46.20
418;DHT22;49;48.530;9.200;2023-02-26T06:48:33;2.30;46.30
418;DHT22;49;48.530;9.200;2023-02-26T06:51:00;1.80;49.30
418;DHT22;49;48.530;9.200;2023-02-26T06:53:31;2.20;51.60
418;DHT22;49;48.530;9.200;2023-02-26T06:55:59;1.80;50.10
418;DHT22;49;48.530;9.200;2023-02-26T06:58:26;1.70;52.10
418;DHT22;49;48.530;9.200;2023-02-26T07:00:56;1.40;51.90
418;DHT22;49;48.530;9.200;2023-02-26T07:03:28;1.40;55.10
418;DHT22;49;48.530;9.200;2023-02-26T07:05:59;1.60;52.50
418;DHT22;49;48.530;9.200;2023-02-26T07:08:27;2.10;52.70
418;DHT22;49;48.530;9.200;2023-02-26T07:10:55;2.40;48.80
418;DHT22;49;48.530;9.200;2023-02-26T07:13:22;2.80;48.50
418;DHT22;49;48.530;9.200;2023-02-26T07:15:49;3.00;45.50
418;DHT22;49;48.530;9.200;2023-02-26T07:18:16;3.20;44.10
418;DHT22;49;48.530;9.200;2023-02-26T07:20:44;2.20;45.40
418;DHT22;49;48.530;9.200;2023-02-26T07:23:11;2.10;50.40
418;DHT22;49;48.530;9.200;2023-02-26T07:25:38;2.20;48.60
418;DHT22;49;48.530;9.200;2023-02-26T07:28:07;1.70;50.40
418;DHT22;49;48.530;9.200;2023-02-26T07:30:34;1.40;54.80
418;DHT22;49;48.530;9.200;2023-02-26T07:33:01;1.50;54.60
418;DHT22;49;48.530;9.200;2023-02-26T07:35:28;1.70;53.80
418;DHT22;49;48.530;9.200;2023-02-26T07:37:55;1.80;52.60
418;DHT22;49;48.530;9.200;2023-02-26T07:40:22;2.00;51.90
418;DHT22;49;48.530;9.200;2023-02-26T07:42:49;1.90;51.90
418;DHT22;49;48.530;9.200;2023-02-26T07:45:18;2.30;53.40
418;DHT22;49;48.530;9.200;2023-02-26T07:47:47;1.60;50.70
418;DHT22;49;48.530;9.200;2023-02-26T07:50:14;1.50;54.70
418;DHT22;49;48.530;9.200;2023-02-26T07:52:43;1.40;53.60
418;DHT22;49;48.530;9.200;2023-02-26T07:55:11;1.40;52.80
418;DHT22;49;48.530;9.200;2023-02-26T07:57:38;1.40;53.10
418;DHT22;49;48.530;9.200;2023-02-26T08:00:06;0.90;54.90
418;DHT22;49;48.530;9.200;2023-02-26T08:02:36;0.70;57.90
418;DHT22;49;48.530;9.200;2023-02-26T08:05:03;0.80;60.20
418;DHT22;49;48.530;9.200;2023-02-26T08:07:31;0.70;58.10
418;DHT22;49;48.530;9.200;2023-02-26T08:09:57;0.80;61.80
418;DHT22;49;48.530;9.200;2023-02-26T08:12:24;0.90;59.90
418;DHT22;49;48.530;9.200;2023-02-26T08:14:51;1.10;56.50
418;DHT22;49;48.530;9.200;2023-02-26T08:17:18;1.10;59.10
418;DHT22;49;48.530;9.200;2023-02-26T08:19:47;1.20;58.40
418;DHT22;49;48.530;9.200;2023-02-26T08:22:14;1.40;61.20
418;DHT22;49;48.530;9.200;2023-02-26T08:24:41;1.20;60.50
418;DHT22;49;48.530;9.200;2023-02-26T08:27:08;1.20;64.50
418;DHT22;49;48.530;9.200;2023-02-26T08:29:35;1.50;65.90
418;DHT22;49;48.530;9.200;2023-02-26T08:32:02;0.90;70.30
418;DHT22;49;48.530;9.200;2023-02-26T08:34:29;0.80;71.10
418;DHT22;49;48.530;9.200;2023-02-26T08:36:58;0.90;75.20
418;DHT22;49;48.530;9.200;2023-02-26T08:39:25;1.40;73.50
418;DHT22;49;48.530;9.200;2023-02-26T08:41:52;1.40;74.10
418;DHT22;49;48.530;9.200;2023-02-26T08:44:19;1.20;73.70
418;DHT22;49;48.530;9.200;2023-02-26T08:46:46;0.80;79.40
418;DHT22;49;48.530;9.200;2023-02-26T08:49:13;0.90;79.90
418;DHT22;49;48.530;9.200;2023-02-26T08:51:41;1.20;78.80
418;DHT22;49;48.530;9.200;2023-02-26T08:54:10;0.80;76.30
418;DHT22;49;48.530;9.200;2023-02-26T08:56:37;0.30;77.90
418;DHT22;49;48.530;9.200;2023-02-26T08:59:04;0.90;77.80
418;DHT22;49;48.530;9.200;2023-02-26T09:01:32;1.10;72.10
418;DHT22;49;48.530;9.200;2023-02-26T09:04:00;0.90;76.10
418;DHT22;49;48.530;9.200;2023-02-26T09:06:29;0.90;73.50
418;DHT22;49;48.530;9.200;2023-02-26T09:08:56;0.90;74.00
418;DHT22;49;48.530;9.200;2023-02-26T09:11:24;0.60;75.00
418;DHT22;49;48.530;9.200;2023-02-26T09:13:56;0.80;67.40
418;DHT22;49;48.530;9.200;2023-02-26T09:16:24;0.90;72.70
418;DHT22;49;48.530;9.200;2023-02-26T09:18:51;0.90;68.30
418;DHT22;49;48.530;9.200;2023-02-26T09:21:18;1.00;69.70
418;DHT22;49;48.530;9.200;2023-02-26T09:23:45;1.20;67.50
418;DHT22;49;48.530;9.200;2023-02-26T09:26:12;1.00;66.70
418;DHT22;49;48.530;9.200;2023-02-26T09:28:41;1.70;68.90
418;DHT22;49;48.530;9.200;2023-02-26T09:31:08;2.20;63.80
418;DHT22;49;48.530;9.200;2023-02-26T09:33:35;1.50;60.50
418;DHT22;49;48.530;9.200;2023-02-26T09:36:03;1.20;62.90
418;DHT22;49;48.530;9.200;2023-02-26T09:38:30;1.30;65.40
418;DHT22;49;48.530;9.200;2023-02-26T09:40:58;1.40;64.50
418;DHT22;49;48.530;9.200;2023-02-26T09:43:55;2.10;63.50
418;DHT22;49;48.530;9.200;2023-02-26T09:46:31;1.70;61.30
418;DHT22;49;48.530;9.200;2023-02-26T09:49:10;1.90;59.00
418;DHT22;49;48.530;9.200;2023-02-26T09:51:38;1.80;66.40
418;DHT22;49;48.530;9.200;2023-02-26T09:54:15;1.90;61.40
418;DHT22;49;48.530;9.200;2023-02-26T09:56:42;2.10;64.40
418;DHT22;49;48.530;9.200;2023-02-26T09:59:12;2.30;55.70
418;DHT22;49;48.530;9.200;2023-02-26T10:01:43;1.80;57.30
418;DHT22;49;48.530;9.200;2023-02-26T10:04:20;1.20;64.20
418;DHT22;49;48.530;9.200;2023-02-26T10:07:06;1.60;60.90
418;DHT22;49;48.530;9.200;2023-02-26T10:09:47;1.90;56.50
418;DHT22;49;48.530;9.200;2023-02-26T10:12:19;1.60;60.00
418;DHT22;49;48.530;9.200;2023-02-26T10:14:51;1.80;54.60
418;DHT22;49;48.530;9.200;2023-02-26T10:17:31;1.80;57.10
418;DHT22;49;48.530;9.200;2023-02-26T10:20:01;2.00;52.70
418;DHT22;49;48.530;9.200;2023-02-26T10:22:32;2.30;60.20
418;DHT22;49;48.530;9.200;2023-02-26T10:25:05;2.70;44.40
418;DHT22;49;48.530;9.200;2023-02-26T10:27:50;2.20;46.70
418;DHT22;49;48.530;9.200;2023-02-26T10:30:31;2.70;46.80
418;DHT22;49;48.530;9.200;2023-02-26T10:33:05;3.00;39.60
418;DHT22;49;48.530;9.200;2023-02-26T10:35:39;3.20;39.10
418;DHT22;49;48.530;9.200;2023-02-26T10:38:12;3.40;38.10
418;DHT22;49;48.530;9.200;2023-02-26T10:40:48;3.30;43.10
418;DHT22;49;48.530;9.200;2023-02-26T10:43:24;3.20;48.50
418;DHT22;49;48.530;9.200;2023-02-26T10:46:16;3.20;40.10
418;DHT22;49;48.530;9.200;2023-02-26T10:48:59;2.70;48.50
418;DHT22;49;48.530;9.200;2023-02-26T10:51:35;2.60;50.00
418;DHT22;49;48.530;9.200;2023-02-26T10:54:09;2.40;51.20
418;DHT22;49;48.530;9.200;2023-02-26T10:56:51;2.30;52.40
418;DHT22;49;48.530;9.200;2023-02-26T10:59:37;2.00;52.40
418;DHT22;49;48.530;9.200;2023-02-26T11:02:19;1.60;58.00
418;DHT22;49;48.530;9.200;2023-02-26T11:04:55;2.00;56.70
418;DHT22;49;48.530;9.200;2023-02-26T11:07:26;2.30;52.50
418;DHT22;49;48.530;9.200;2023-02-26T11:09:54;2.40;53.00
418;DHT22;49;48.530;9.200;2023-02-26T11:12:24;1.80;55.80
418;DHT22;49;48.530;9.200;2023-02-26T11:14:53;2.00;62.50
418;DHT22;49;48.530;9.200;2023-02-26T11:17:27;2.10;55.60
418;DHT22;49;48.530;9.200;2023-02-26T11:20:00;1.90;58.20
418;DHT22;49;48.530;9.200;2023-02-26T11:22:32;2.00;56.80
418;DHT22;49;48.530;9.200;2023-02-26T11:25:05;1.70;57.60
418;DHT22;49;48.530;9.200;2023-02-26T11:27:39;1.60;57.90
418;DHT22;49;48.530;9.200;2023-02-26T11:30:35;2.00;57.30
418;DHT22;49;48.530;9.200;2023-02-26T11:33:13;2.10;57.30
418;DHT22;49;48.530;9.200;2023-02-26T11:35:58;2.50;55.70
418;DHT22;49;48.530;9.200;2023-02-26T11:38:28;3.10;57.00
418;DHT22;49;48.530;9.200;2023-02-26T11:41:00;3.00;48.90
418;DHT22;49;48.530;9.200;2023-02-26T11:43:38;2.90;51.70
418;DHT22;49;48.530;9.200;2023-02-26T11:46:13;2.30;54.20
418;DHT22;49;48.530;9.200;2023-02-26T11:48:49;2.00;57.30
418;DHT22;49;48.530;9.200;2023-02-26T11:51:27;1.80;56.50
418;DHT22;49;48.530;9.200;2023-02-26T11:54:22;1.60;60.20
418;DHT22;49;48.530;9.200;2023-02-26T11:57:00;2.00;58.90
418;DHT22;49;48.530;9.200;2023-02-26T11:59:31;2.50;54.50
418;DHT22;49;48.530;9.200;2023-02-26T12:02:13;2.00;57.60
418;DHT22;49;48.530;9.200;2023-02-26T12:04:45;2.00;57.30
418;DHT22;49;48.530;9.200;2023-02-26T12:07:15;1.80;58.30
418;DHT22;49;48.530;9.200;2023-02-26T12:12:30;2.00;56.40
418;DHT22;49;48.530;9.200;2023-02-26T12:15:22;1.80;58.20
418;DHT22;49;48.530;9.200;2023-02-26T12:18:18;2.20;57.40
418;DHT22;49;48.530;9.200;2023-02-26T12:20:57;2.70;54.30
418;DHT22;49;48.530;9.200;2023-02-26T12:24:03;2.50;53.00
418;DHT22;49;48.530;9.200;2023-02-26T12:26:37;2.50;53.80
418;DHT22;49;48.530;9.200;2023-02-26T12:32:24;2.60;55.10
418;DHT22;49;48.530;9.200;2023-02-26T12:35:19;2.20;54.80
418;DHT22;49;48.530;9.200;2023-02-26T12:38:04;1.90;57.60
418;DHT22;49;48.530;9.200;2023-02-26T12:40:53;1.80;59.50
418;DHT22;49;48.530;9.200;2023-02-26T12:43:29;2.00;60.50
418;DHT22;49;48.530;9.200;2023-02-26T12:46:05;2.10;57.00
418;DHT22;49;48.530;9.200;2023-02-26T12:48:47;1.90;58.00
418;DHT22;49;48.530;9.200;2023-02-26T12:51:29;2.10;61.10
418;DHT22;49;48.530;9.200;2023-02-26T12:54:31;2.60;59.40
418;DHT22;49;48.530;9.200;2023-02-26T13:03:34;3.20;51.60
418;DHT22;49;48.530;9.200;2023-02-26T13:06:29;3.00;49.80
418;DHT22;49;48.530;9.200;2023-02-26T13:09:08;3.00;56.70
418;DHT22;49;48.530;9.200;2023-02-26T13:11:49;2.50;51.90
418;DHT22;49;48.530;9.200;2023-02-26T13:14:28;3.00;52.20
418;DHT22;49;48.530;9.200;2023-02-26T13:17:02;2.80;56.20
418;DHT22;49;48.530;9.200;2023-02-26T13:19:38;2.50;53.40
418;DHT22;49;48.530;9.200;2023-02-26T13:22:15;2.80;54.10
418;DHT22;49;48.530;9.200;2023-02-26T13:24:46;2.60;54.70
418;DHT22;49;48.530;9.200;2023-02-26T13:27:17;2.30;57.50
418;DHT22;49;48.530;9.200;2023-02-26T13:29:48;2.60;54.20
418;DHT22;49;48.530;9.200;2023-02-26T13:32:20;2.50;56.50
418;DHT22;49;48.530;9.200;2023-02-26T13:34:53;2.80;51.10
418;DHT22;49;48.530;9.200;2023-02-26T13:37:24;2.50;51.80
418;DHT22;49;48.530;9.200;2023-02-26T13:40:01;2.40;52.70
418;DHT22;49;48.530;9.200;2023-02-26T13:42:39;2.80;49.40
418;DHT22;49;48.530;9.200;2023-02-26T13:45:22;3.00;49.80
418;DHT22;49;48.530;9.200;2023-02-26T13:48:00;3.30;48.30
418;DHT22;49;48.530;9.200;2023-02-26T13:50:40;3.10;46.60
418;DHT22;49;48.530;9.200;2023-02-26T13:53:48;2.90;47.20
418;DHT22;49;48.530;9.200;2023-02-26T13:56:21;3.00;48.00
418;DHT22;49;48.530;9.200;2023-02-26T13:59:01;3.00;48.60
418;DHT22;49;48.530;9.200;2023-02-26T14:01:32;2.90;48.10
418;DHT22;49;48.530;9.200;2023-02-26T14:04:08;2.90;47.20
418;DHT22;49;48.530;9.200;2023-02-26T14:06:53;2.50;49.50
418;DHT22;49;48.530;9.200;2023-02-26T14:09:36;2.90;45.70
418;DHT22;49;48.530;9.200;2023-02-26T14:12:35;2.90;44.70
418;DHT22;49;48.530;9.200;2023-02-26T14:15:30;3.20;44.80
418;DHT22;49;48.530;9.200;2023-02-26T14:18:05;3.10;46.50
418;DHT22;49;48.530;9.200;2023-02-26T14:20:35;3.40;41.40
418;DHT22;49;48.530;9.200;2023-02-26T14:23:20;3.30;40.30
418;DHT22;49;48.530;9.200;2023-02-26T14:25:51;3.40;40.10
418;DHT22;49;48.530;9.200;2023-02-26T14:28:42;3.40;41.30
418;DHT22;49;48.530;9.200;2023-02-26T14:31:20;3.70;40.50
418;DHT22;49;48.530;9.200;2023-02-26T14:34:11;3.70;36.30
418;DHT22;49;48.530;9.200;2023-02-26T14:36:43;3.10;35.80
418;DHT22;49;48.530;9.200;2023-02-26T14:39:25;3.10;40.80
418;DHT22;49;48.530;9.200;2023-02-26T14:41:57;3.80;33.30
418;DHT22;49;48.530;9.200;2023-02-26T14:44:26;3.40;33.40
418;DHT22;49;48.530;9.200;2023-02-26T14:46:56;3.70;32.90
418;DHT22;49;48.530;9.200;2023-02-26T14:49:27;3.70;34.20
418;DHT22;49;48.530;9.200;2023-02-26T14:52:12;3.70;32.10
418;DHT22;49;48.530;9.200;2023-02-26T14:57:46;2.40;57.60
418;DHT22;49;48.530;9.200;2023-02-26T15:00:29;2.30;65.20
418;DHT22;49;48.530;9.200;2023-02-26T15:03:19;2.60;54.90
418;DHT22;49;48.530;9.200;2023-02-26T15:06:06;3.70;56.50
418;DHT22;49;48.530;9.200;2023-02-26T15:08:50;3.80;44.60
418;DHT22;49;48.530;9.200;2023-02-26T15:11:35;3.80;43.60
418;DHT22;49;48.530;9.200;2023-02-26T15:17:13;2.80;40.60
418;DHT22;49;48.530;9.200;2023-02-26T15:19:55;3.40;40.70
418;DHT22;49;48.530;9.200;2023-02-26T15:22:37;3.70;33.90
418;DHT22;49;48.530;9.200;2023-02-26T15:25:15;3.30;36.30
418;DHT22;49;48.530;9.200;2023-02-26T15:27:47;3.40;33.40
418;DHT22;49;48.530;9.200;2023-02-26T15:30:17;3.10;32.60
418;DHT22;49;48.530;9.200;2023-02-26T15:32:45;3.00;32.10
418;DHT22;49;48.530;9.200;2023-02-26T15:35:16;3.40;33.00
418;DHT22;49;48.530;9.200;2023-02-26T15:37:48;3.40;31.80
418;DHT22;49;48.530;9.200;2023-02-26T15:40:16;3.40;34.30
418;DHT22;49;48.530;9.200;2023-02-26T15:42:44;2.70;34.00
418;DHT22;49;48.530;9.200;2023-02-26T15:45:17;2.80;51.30
418;DHT22;49;48.530;9.200;2023-02-26T15:47:47;2.80;45.30
418;DHT22;49;48.530;9.200;2023-02-26T15:50:34;2.80;47.40
418;DHT22;49;48.530;9.200;2023-02-26T15:53:03;2.90;48.40
418;DHT22;49;48.530;9.200;2023-02-26T15:55:37;3.20;43.30
418;DHT22;49;48.530;9.200;2023-02-26T15:58:06;3.40;42.80
418;DHT22;49;48.530;9.200;2023-02-26T16:00:35;3.40;45.00
418;DHT22;49;48.530;9.200;2023-02-26T16:03:03;3.90;44.90
418;DHT22;49;48.530;9.200;2023-02-26T16:05:32;4.20;40.60
418;DHT22;49;48.530;9.200;2023-02-26T16:07:59;4.10;37.70
418;DHT22;49;48.530;9.200;2023-02-26T16:10:31;3.80;47.10
418;DHT22;49;48.530;9.200;2023-02-26T16:13:00;3.60;42.30
418;DHT22;49;48.530;9.200;2023-02-26T16:15:46;3.70;43.20
418;DHT22;49;48.530;9.200;2023-02-26T16:18:16;3.60;49.30
418;DHT22;49;48.530;9.200;2023-02-26T16:20:51;4.10;54.40
418;DHT22;49;48.530;9.200;2023-02-26T16:23:22;4.00;52.30
418;DHT22;49;48.530;9.200;2023-02-26T16:25:53;3.90;51.10
418;DHT22;49;48.530;9.200;2023-02-26T16:28:23;3.30;55.50
418;DHT22;49;48.530;9.200;2023-02-26T16:30:53;2.70;57.40
418;DHT22;49;48.530;9.200;2023-02-26T16:33:22;2.50;59.80
418;DHT22;49;48.530;9.200;2023-02-26T16:36:03;3.10;59.70
418;DHT22;49;48.530;9.200;2023-02-26T16:38:41;3.10;58.80
418;DHT22;49;48.530;9.200;2023-02-26T16:41:12;3.20;53.90
418;DHT22;49;48.530;9.200;2023-02-26T16:43:50;3.00;55.80
418;DHT22;49;48.530;9.200;2023-02-26T16:46:30;3.30;56.80
418;DHT22;49;48.530;9.200;2023-02-26T16:49:02;3.10;51.90
418;DHT22;49;48.530;9.200;2023-02-26T16:51:36;2.90;50.70
418;DHT22;49;48.530;9.200;2023-02-26T16:54:06;2.30;52.10
418;DHT22;49;48.530;9.200;2023-02-26T16:56:38;2.40;51.30
418;DHT22;49;48.530;9.200;2023-02-26T16:59:11;2.60;54.00
418;DHT22;49;48.530;9.200;2023-02-26T17:01:48;2.70;49.50
418;DHT22;49;48.530;9.200;2023-02-26T17:04:17;2.40;46.20
418;DHT22;49;48.530;9.200;2023-02-26T17:06:46;2.50;40.40
418;DHT22;49;48.530;9.200;2023-02-26T17:09:33;2.30;36.80
418;DHT22;49;48.530;9.200;2023-02-26T17:12:11;2.10;34.70
418;DHT22;49;48.530;9.200;2023-02-26T17:14:41;2.20;34.00
418;DHT22;49;48.530;9.200;2023-02-26T17:17:08;2.40;34.40
418;DHT22;49;48.530;9.200;2023-02-26T17:19:36;2.30;33.90
418;DHT22;49;48.530;9.200;2023-02-26T17:22:10;2.30;34.80
418;DHT22;49;48.530;9.200;2023-02-26T17:24:40;2.20;34.40
418;DHT22;49;48.530;9.200;2023-02-26T17:27:13;2.30;34.50
418;DHT22;49;48.530;9.200;2023-02-26T17:29:43;2.30;34.00
418;DHT22;49;48.530;9.200;2023-02-26T17:32:15;2.50;34.50
418;DHT22;49;48.530;9.200;2023-02-26T17:34:43;2.50;34.40
418;DHT22;49;48.530;9.200;2023-02-26T17:37:13;2.30;35.20
418;DHT22;49;48.530;9.200;2023-02-26T17:39:41;2.30;33.40
418;DHT22;49;48.530;9.200;2023-02-26T17:42:10;2.00;34.00
418;DHT22;49;48.530;9.200;2023-02-26T17:44:37;1.90;34.00
418;DHT22;49;48.530;9.200;2023-02-26T17:47:05;1.90;33.30
418;DHT22;49;48.530;9.200;2023-02-26T17:49:32;1.90;40.60
418;DHT22;49;48.530;9.200;2023-02-26T17:51:59;2.10;33.80
418;DHT22;49;48.530;9.200;2023-02-26T17:54:28;2.00;34.20
418;DHT22;49;48.530;9.200;2023-02-26T17:56:55;2.30;33.40
418;DHT22;49;48.530;9.200;2023-02-26T17:59:24;2.10;33.10
418;DHT22;49;48.530;9.200;2023-02-26T18:01:53;2.20;33.20
418;DHT22;49;48.530;9.200;2023-02-26T18:04:22;2.00;33.40